Hlavní strana
METAR-TAF:

METAR-TAF

Letiště :

Monticello, Kentucky, Spojené státy americké

zeměpisná šířka: 36-51-19N, zeměpisná délka: 084-51-22W, výška: 294 m

Aktuální stav počasí

Zpráva byla vytvořena před 49 minutami, v 07:56 UTC
Jihozápadní vítr 9 kt s nárazy do 19 kt, proměnlivý mezi severovýchodním a západním
Teplota 16°C
Vlhkost vzduchu 88%
Tlak 1004 hPa
Viditelnost: 14.5 km
Zataženo ve výšce 1000 ft

METAR: KEKQ 260756Z AUTO 22009G19KT 050V280 9SM OVC010 16/14 A2964 RMK AO2 RAE21 SLP052 T01560144 PNO $

Čas: 04:45 (08:45 UTC)


TAF: chybějící

Stav a předpovědi počasí z více než 4 000 letišť (zprávy METAR a TAF).

Červené a žluté tečky na mapě představují dostupné meteorologické stanice.

Když kurzor umístíte na tečku, zobrazí se název stanice.

Pak kliknutím zobrazíte stav a předpověď počasí.

Chcete-li změnit mapu, kliknutím na zelené tlačítko se znaménkem +mapu přiblížíte, kliknutím na zelené tlačítko se znaménkem – mapu oddálíte a kliknutím na zelené šipky přejdete na sousední mapy.


METAR-TAF: